createdAt,value
2018-10-17T00:00:04.218Z,74.63
2018-10-17T00:02:32.329Z,74.71
2018-10-17T00:05:01.317Z,74.88
2018-10-17T00:07:29.564Z,74.69
2018-10-17T00:09:57.899Z,74.47
2018-10-17T00:12:26.224Z,74.46
2018-10-17T00:14:54.563Z,74.41
2018-10-17T00:17:22.306Z,74.33
2018-10-17T00:19:51.205Z,74.68
2018-10-17T00:22:18.953Z,74.96
2018-10-17T00:24:47.855Z,75.27
2018-10-17T00:27:15.604Z,74.94
2018-10-17T00:29:43.929Z,74.77
2018-10-17T00:32:12.839Z,74.76
2018-10-17T00:34:41.164Z,74.87
2018-10-17T00:37:09.554Z,74.82
2018-10-17T00:39:37.241Z,74.87
2018-10-17T00:42:06.147Z,74.89
2018-10-17T00:44:34.480Z,75.11
2018-10-17T00:47:02.265Z,74.78
2018-10-17T00:49:30.580Z,74.70
2018-10-17T00:51:59.808Z,74.96
2018-10-17T00:54:27.552Z,74.99
2018-10-17T00:56:56.469Z,74.95
2018-10-17T00:59:24.796Z,74.98
2018-10-17T01:01:53.398Z,75.19
2018-10-17T01:04:22.376Z,75.38
2018-10-17T01:06:51.528Z,75.09
2018-10-17T01:09:19.839Z,75.15
2018-10-17T01:11:48.606Z,75.40
2018-10-17T01:14:16.337Z,75.21
2018-10-17T01:16:44.659Z,75.04
2018-10-17T01:19:13.044Z,75.33
2018-10-17T01:21:41.318Z,75.18
2018-10-17T01:24:09.655Z,75.46
2018-10-17T01:26:38.297Z,75.70
2018-10-17T01:29:06.684Z,75.91
2018-10-17T01:31:34.952Z,76.17
2018-10-17T01:34:03.854Z,76.39
2018-10-17T01:36:32.176Z,76.64
2018-10-17T01:39:00.510Z,76.35
2018-10-17T01:41:28.828Z,76.32
2018-10-17T01:43:56.906Z,76.49
2018-10-17T01:46:24.904Z,76.15
2018-10-17T01:48:53.861Z,76.17
2018-10-17T01:51:22.170Z,76.03
2018-10-17T01:53:50.493Z,76.12
2018-10-17T01:56:18.811Z,76.26
2018-10-17T01:58:47.140Z,76.43
2018-10-17T02:01:15.824Z,76.19
2018-10-17T02:03:44.129Z,76.03
2018-10-17T02:06:12.461Z,75.80
2018-10-17T02:08:40.783Z,75.72
2018-10-17T02:11:08.572Z,75.54
2018-10-17T02:13:36.978Z,75.26
2018-10-17T02:16:05.780Z,75.31
2018-10-17T02:18:33.534Z,75.41
2018-10-17T02:21:01.862Z,75.37
2018-10-17T02:23:30.181Z,75.24
2018-10-17T02:25:59.090Z,75.45
2018-10-17T02:28:27.424Z,75.56
2018-10-17T02:30:55.197Z,75.72
2018-10-17T02:33:24.085Z,75.82
2018-10-17T02:35:52.707Z,75.99
2018-10-17T02:38:20.869Z,76.27
2018-10-17T02:40:49.357Z,76.40
2018-10-17T02:43:17.179Z,76.59
2018-10-17T02:45:46.005Z,76.70
2018-10-17T02:48:13.749Z,76.61
2018-10-17T02:50:42.095Z,76.50
2018-10-17T02:53:10.503Z,76.68
2018-10-17T02:55:38.754Z,76.81
2018-10-17T02:58:07.086Z,77.10
2018-10-17T03:00:35.404Z,77.21
2018-10-17T03:03:04.303Z,76.86
2018-10-17T03:05:32.064Z,76.68
2018-10-17T03:08:00.980Z,76.47
2018-10-17T03:10:28.732Z,76.66
2018-10-17T03:12:57.111Z,76.79
2018-10-17T03:15:25.400Z,76.84
2018-10-17T03:17:54.295Z,76.91
2018-10-17T03:20:22.112Z,76.88
2018-10-17T03:22:50.974Z,76.74
2018-10-17T03:25:18.838Z,76.45
2018-10-17T03:27:47.663Z,76.35
2018-10-17T03:30:15.373Z,76.28
2018-10-17T03:32:44.268Z,76.22
2018-10-17T03:35:12.031Z,76.25
2018-10-17T03:37:41.129Z,76.40
2018-10-17T03:40:10.033Z,76.47
2018-10-17T03:42:38.384Z,76.51
2018-10-17T03:45:06.126Z,76.76
2018-10-17T03:47:35.034Z,76.57
2018-10-17T03:50:04.370Z,76.37
2018-10-17T03:52:31.983Z,76.28
2018-10-17T03:55:00.337Z,76.20
2018-10-17T03:57:28.048Z,76.20
2018-10-17T03:59:56.959Z,75.97
2018-10-17T04:02:25.340Z,76.14
2018-10-17T04:04:54.608Z,76.22
2018-10-17T04:07:21.441Z,76.37
2018-10-17T04:09:49.765Z,76.29
2018-10-17T04:12:18.678Z,76.17
2018-10-17T04:14:46.991Z,76.14
2018-10-17T04:17:15.413Z,76.56
2018-10-17T04:19:43.062Z,76.14
2018-10-17T04:22:11.394Z,76.15
2018-10-17T04:24:39.722Z,76.23
2018-10-17T04:27:08.618Z,76.22
2018-10-17T04:29:36.387Z,76.26
2018-10-17T04:32:04.841Z,76.54
2018-10-17T04:34:33.578Z,76.75
2018-10-17T04:37:01.966Z,76.57
2018-10-17T04:39:29.632Z,76.68
2018-10-17T04:41:58.324Z,76.89
2018-10-17T04:44:26.856Z,77.17
2018-10-17T04:46:54.720Z,76.88
2018-10-17T04:49:22.916Z,76.80
2018-10-17T04:51:51.237Z,76.71
2018-10-17T04:54:20.487Z,76.62
2018-10-17T04:56:48.818Z,76.44
2018-10-17T04:59:16.661Z,76.52
2018-10-17T05:01:45.475Z,76.65
2018-10-17T05:04:13.808Z,76.45
2018-10-17T05:06:41.612Z,76.26
2018-10-17T05:09:09.872Z,76.20
2018-10-17T05:11:38.190Z,75.79
2018-10-17T05:14:07.096Z,75.59
2018-10-17T05:16:35.428Z,75.55
2018-10-17T05:19:03.794Z,75.60
2018-10-17T05:21:31.857Z,75.95
2018-10-17T05:24:00.180Z,75.90
2018-10-17T05:26:28.504Z,75.91
2018-10-17T05:28:57.469Z,75.86
2018-10-17T05:31:25.161Z,75.86
2018-10-17T05:33:54.072Z,75.92
2018-10-17T05:36:24.605Z,75.93
2018-10-17T05:38:50.361Z,76.02
2018-10-17T05:41:19.265Z,76.05
2018-10-17T05:43:47.024Z,76.33
2018-10-17T05:46:16.457Z,76.66
2018-10-17T05:48:45.073Z,76.53
2018-10-17T05:51:13.643Z,76.53
2018-10-17T05:53:41.402Z,76.71
2018-10-17T05:56:10.732Z,76.72
2018-10-17T05:58:39.080Z,76.50
2018-10-17T06:01:06.863Z,76.21
2018-10-17T06:03:35.762Z,76.22
2018-10-17T06:06:04.108Z,76.06
2018-10-17T06:08:32.740Z,76.00
2018-10-17T06:11:00.518Z,75.94
2018-10-17T06:13:28.827Z,75.93
2018-10-17T06:15:57.740Z,76.04
2018-10-17T06:18:26.926Z,76.22
2018-10-17T06:20:54.689Z,76.31
2018-10-17T06:23:23.681Z,76.40
2018-10-17T06:25:52.177Z,76.62
2018-10-17T06:28:21.178Z,76.63
2018-10-17T06:30:49.777Z,76.47
2018-10-17T06:33:17.445Z,76.27
2018-10-17T06:35:46.352Z,76.33
2018-10-17T06:38:14.724Z,76.22
2018-10-17T06:40:43.937Z,76.28
2018-10-17T06:43:12.323Z,76.27
2018-10-17T06:45:40.600Z,76.16
2018-10-17T06:48:08.350Z,76.03
2018-10-17T06:50:37.720Z,75.84
2018-10-17T06:53:05.884Z,75.65
2018-10-17T06:55:33.796Z,75.64
2018-10-17T06:58:02.167Z,75.58
2018-10-17T07:00:31.397Z,75.54
2018-10-17T07:02:59.138Z,75.53
2018-10-17T07:05:28.047Z,75.45
2018-10-17T07:07:56.375Z,75.30
2018-10-17T07:10:24.700Z,75.13
2018-10-17T07:12:53.061Z,75.00
2018-10-17T07:17:49.439Z,74.66
2018-10-17T07:20:18.369Z,74.47
2018-10-17T07:22:47.334Z,74.26
2018-10-17T07:25:15.612Z,74.06
2018-10-17T07:27:43.348Z,73.94
2018-10-17T07:30:12.272Z,73.95
2018-10-17T07:32:40.604Z,73.95
2018-10-17T07:35:08.931Z,73.82
2018-10-17T07:37:36.824Z,73.73
2018-10-17T07:40:06.424Z,73.63
2018-10-17T07:42:35.900Z,73.60
2018-10-17T07:45:04.233Z,73.43
2018-10-17T07:47:31.980Z,73.48
2018-10-17T07:50:00.883Z,73.33
2018-10-17T07:52:29.215Z,73.28
2018-10-17T07:54:58.587Z,72.93
2018-10-17T07:57:25.562Z,72.35
2018-10-17T07:59:53.974Z,72.08
2018-10-17T08:02:22.816Z,71.84
2018-10-17T08:04:50.560Z,71.81
2018-10-17T08:07:18.892Z,71.69
2018-10-17T08:09:47.813Z,71.61
2018-10-17T08:12:16.231Z,71.55
2018-10-17T08:14:44.022Z,71.46
2018-10-17T08:17:12.357Z,71.38
2018-10-17T08:19:41.259Z,71.24
2018-10-17T08:22:09.001Z,71.15
2018-10-17T08:24:37.331Z,70.95
2018-10-17T08:27:06.239Z,70.75
2018-10-17T08:29:33.982Z,70.41
2018-10-17T08:32:02.306Z,70.10
2018-10-17T08:34:30.628Z,69.87
2018-10-17T08:36:59.857Z,69.93
2018-10-17T08:39:27.872Z,69.73
2018-10-17T08:41:55.626Z,69.42
2018-10-17T08:44:24.523Z,69.08
2018-10-17T08:46:52.708Z,68.80
2018-10-17T08:49:21.523Z,68.76
2018-10-17T08:51:49.383Z,68.60
2018-10-17T08:54:17.878Z,68.36
2018-10-17T08:56:46.651Z,68.03
2018-10-17T08:59:14.988Z,67.62
2018-10-17T09:01:43.357Z,67.38
2018-10-17T09:04:11.664Z,67.19
2018-10-17T09:06:40.016Z,66.91
2018-10-17T09:09:09.050Z,66.61
2018-10-17T09:11:36.995Z,66.38
2018-10-17T09:14:05.055Z,65.94
2018-10-17T09:16:33.958Z,65.62
2018-10-17T09:19:01.709Z,65.59
2018-10-17T09:21:30.217Z,65.35
2018-10-17T09:23:59.342Z,65.20
2018-10-17T09:26:27.052Z,65.36
2018-10-17T09:28:55.380Z,65.33
2018-10-17T09:31:24.593Z,64.92
2018-10-17T09:33:53.881Z,64.60
2018-10-17T09:36:21.612Z,64.50
2018-10-17T09:38:49.937Z,64.38
2018-10-17T09:41:18.871Z,64.41
2018-10-17T09:43:47.195Z,64.63
2018-10-17T09:46:15.030Z,64.47
2018-10-17T09:48:43.891Z,64.61
2018-10-17T09:51:11.641Z,64.48
2018-10-17T09:53:40.593Z,64.29
2018-10-17T09:56:08.881Z,64.12
2018-10-17T09:58:37.205Z,64.15
2018-10-17T10:01:04.949Z,63.89
2018-10-17T10:03:33.882Z,63.65
2018-10-17T10:06:01.716Z,63.51
2018-10-17T10:08:30.725Z,63.30
2018-10-17T10:10:59.138Z,63.10
2018-10-17T10:13:27.499Z,63.20
2018-10-17T10:15:55.293Z,63.37
2018-10-17T10:18:24.340Z,63.32
2018-10-17T10:20:52.160Z,63.68
2018-10-17T10:23:21.189Z,63.66
2018-10-17T10:25:48.950Z,63.32
2018-10-17T10:28:18.069Z,63.06
2018-10-17T10:30:46.751Z,62.96
2018-10-17T10:33:15.109Z,62.97
2018-10-17T10:35:43.442Z,63.06
2018-10-17T10:38:11.830Z,62.88
2018-10-17T10:40:40.310Z,62.92
2018-10-17T10:43:08.000Z,62.33
2018-10-17T10:45:37.085Z,62.30
2018-10-17T10:48:05.396Z,61.81
2018-10-17T10:50:33.083Z,61.89
2018-10-17T10:53:01.528Z,62.65
2018-10-17T10:55:30.439Z,64.32
2018-10-17T10:57:58.177Z,64.95
2018-10-17T11:00:27.172Z,64.48
2018-10-17T11:02:55.561Z,62.50
2018-10-17T11:05:24.145Z,60.82
2018-10-17T11:07:51.911Z,58.09
2018-10-17T11:10:20.878Z,55.91
2018-10-17T11:12:48.609Z,54.21
2018-10-17T11:15:17.686Z,52.55
2018-10-17T11:17:46.027Z,50.63
2018-10-17T11:20:13.773Z,49.45
2018-10-17T11:22:42.697Z,48.43
2018-10-17T11:25:11.037Z,47.67
2018-10-17T11:27:38.850Z,47.03
2018-10-17T11:30:07.245Z,46.63
2018-10-17T11:32:36.244Z,46.63
2018-10-17T11:35:04.626Z,46.31
2018-10-17T11:37:32.554Z,46.41
2018-10-17T11:40:01.504Z,46.64
2018-10-17T11:42:29.817Z,46.52
2018-10-17T11:44:58.771Z,46.66
2018-10-17T11:47:27.377Z,46.32
2018-10-17T11:49:55.533Z,46.14
2018-10-17T11:52:23.917Z,45.52
2018-10-17T11:54:52.227Z,45.18
2018-10-17T11:57:20.641Z,45.15
2018-10-17T11:59:48.967Z,44.81
2018-10-17T12:02:17.288Z,44.28
2018-10-17T12:04:46.137Z,43.97
2018-10-17T12:07:14.384Z,43.42
2018-10-17T12:09:42.128Z,43.31
2018-10-17T12:12:11.328Z,43.16
2018-10-17T12:14:38.848Z,42.82
2018-10-17T12:17:07.202Z,43.05
2018-10-17T12:19:36.246Z,42.60
2018-10-17T12:22:04.955Z,42.90
2018-10-17T12:24:33.343Z,42.62
2018-10-17T12:27:01.844Z,42.68
2018-10-17T12:29:30.105Z,42.42
2018-10-17T12:31:58.536Z,42.60
2018-10-17T12:34:26.879Z,42.60
2018-10-17T12:36:55.236Z,42.07
2018-10-17T12:39:24.168Z,41.83
2018-10-17T12:41:53.865Z,41.82
2018-10-17T12:44:21.700Z,41.24
2018-10-17T12:46:50.617Z,40.91
2018-10-17T12:49:18.947Z,40.89
2018-10-17T12:51:47.373Z,41.25
2018-10-17T12:54:15.719Z,41.37
2018-10-17T12:56:44.216Z,41.38
2018-10-17T12:59:12.621Z,41.18
2018-10-17T13:01:40.901Z,41.11
2018-10-17T13:04:09.233Z,41.02
2018-10-17T13:06:37.867Z,40.88
2018-10-17T13:09:05.700Z,40.50
2018-10-17T13:11:34.940Z,40.59
2018-10-17T13:14:03.870Z,40.40
2018-10-17T13:16:32.461Z,39.84
2018-10-17T13:19:01.167Z,39.09
2018-10-17T13:21:29.531Z,38.62
2018-10-17T13:23:58.269Z,37.93
2018-10-17T13:26:26.319Z,37.63
2018-10-17T13:28:54.761Z,37.41
2018-10-17T13:31:23.137Z,37.10
2018-10-17T13:33:51.539Z,36.97
2018-10-17T13:36:20.870Z,36.70
2018-10-17T13:38:49.312Z,36.71
2018-10-17T13:41:17.778Z,36.69
2018-10-17T13:43:46.397Z,36.68
2018-10-17T13:46:14.515Z,36.97
2018-10-17T13:48:42.846Z,37.25
2018-10-17T13:51:10.626Z,37.54
2018-10-17T13:53:39.051Z,37.87
2018-10-17T13:56:08.021Z,38.14
2018-10-17T13:58:36.419Z,38.32
2018-10-17T14:01:04.824Z,38.56
2018-10-17T14:03:33.104Z,38.64
2018-10-17T14:06:01.506Z,38.71
2018-10-17T14:08:30.068Z,38.82
2018-10-17T14:10:58.220Z,38.94
2018-10-17T14:13:26.640Z,38.66
2018-10-17T14:15:54.952Z,38.32
2018-10-17T14:18:23.306Z,38.63
2018-10-17T14:20:51.155Z,38.31
2018-10-17T14:23:20.204Z,38.66
2018-10-17T14:25:48.528Z,38.53
2018-10-17T14:28:16.918Z,38.93
2018-10-17T14:30:45.149Z,39.29
2018-10-17T14:33:13.709Z,39.51
2018-10-17T14:35:42.012Z,39.75
2018-10-17T14:38:10.377Z,40.24
2018-10-17T14:40:38.802Z,40.85
2018-10-17T14:43:07.403Z,41.59
2018-10-17T14:45:36.079Z,42.35
2018-10-17T14:48:04.443Z,42.99
2018-10-17T14:50:32.750Z,43.78
2018-10-17T14:53:01.167Z,44.54
2018-10-17T14:55:30.524Z,45.40
2018-10-17T14:57:59.226Z,46.04
2018-10-17T15:00:27.040Z,46.84
2018-10-17T15:02:55.656Z,47.70
2018-10-17T15:05:23.683Z,48.42
2018-10-17T15:07:52.583Z,49.20
2018-10-17T15:10:20.915Z,50.08
2018-10-17T15:12:49.280Z,51.16
2018-10-17T15:15:17.759Z,52.04
2018-10-17T15:17:45.393Z,53.26
2018-10-17T15:20:14.632Z,54.11
2018-10-17T15:22:42.379Z,54.85
2018-10-17T15:25:11.127Z,55.39
2018-10-17T15:27:39.617Z,56.18
2018-10-17T15:30:07.484Z,56.80
2018-10-17T15:32:35.766Z,57.55
2018-10-17T15:35:04.088Z,58.13
2018-10-17T15:37:33.026Z,58.51
2018-10-17T15:40:01.327Z,58.89
2018-10-17T15:42:29.655Z,59.58
2018-10-17T15:44:57.991Z,60.01
2018-10-17T15:47:26.322Z,60.53
2018-10-17T15:49:54.064Z,60.66
2018-10-17T15:52:22.394Z,60.86
2018-10-17T15:54:50.727Z,61.09
2018-10-17T15:57:19.632Z,61.16
2018-10-17T15:59:47.948Z,61.37
2018-10-17T16:02:16.386Z,61.45
2018-10-17T16:04:44.072Z,61.51
2018-10-17T16:07:12.934Z,61.58
2018-10-17T16:09:40.692Z,61.92
2018-10-17T16:12:09.674Z,62.33
2018-10-17T16:14:38.287Z,62.57
2018-10-17T16:17:06.114Z,62.83
2018-10-17T16:19:34.353Z,62.95
2018-10-17T16:22:02.689Z,63.17
2018-10-17T16:24:31.020Z,63.46
2018-10-17T16:26:59.347Z,63.59
2018-10-17T16:29:28.572Z,63.76
2018-10-17T16:31:57.125Z,63.83
2018-10-17T16:34:25.211Z,63.84
2018-10-17T16:36:53.545Z,64.00
2018-10-17T16:39:21.870Z,64.22
2018-10-17T16:41:50.196Z,64.31
2018-10-17T16:44:18.483Z,64.54
2018-10-17T16:46:46.853Z,64.74
2018-10-17T16:49:14.591Z,64.68
2018-10-17T16:51:43.510Z,64.68
2018-10-17T16:54:11.322Z,64.84
2018-10-17T16:56:40.168Z,64.97
2018-10-17T16:59:08.791Z,65.24
2018-10-17T17:01:36.542Z,65.21
2018-10-17T17:04:04.877Z,65.31
2018-10-17T17:06:33.217Z,65.60
2018-10-17T17:09:01.599Z,65.88
2018-10-17T17:11:30.640Z,66.30
2018-10-17T17:13:58.396Z,66.46
2018-10-17T17:16:27.784Z,66.52
2018-10-17T17:18:56.598Z,66.66
2018-10-17T17:21:24.940Z,66.86
2018-10-17T17:23:53.299Z,66.90
2018-10-17T17:26:21.780Z,67.00
2018-10-17T17:28:50.147Z,67.13
2018-10-17T17:31:19.484Z,67.00
2018-10-17T17:33:46.544Z,67.12
2018-10-17T17:36:16.516Z,67.29
2018-10-17T17:38:44.699Z,67.42
2018-10-17T17:41:12.439Z,67.59
2018-10-17T17:43:41.347Z,67.73
2018-10-17T17:46:10.389Z,67.89
2018-10-17T17:48:38.340Z,68.13
2018-10-17T17:51:06.090Z,68.44
2018-10-17T17:53:35.017Z,68.85
2018-10-17T17:56:03.352Z,69.15
2018-10-17T17:58:31.873Z,69.37
2018-10-17T18:00:59.465Z,69.59
2018-10-17T18:03:29.114Z,69.63
2018-10-17T18:05:57.439Z,69.61
2018-10-17T18:08:25.917Z,69.71
2018-10-17T18:10:54.338Z,70.11
2018-10-17T18:13:22.677Z,70.51
2018-10-17T18:15:51.353Z,70.19
2018-10-17T18:18:20.314Z,69.93
2018-10-17T18:20:48.647Z,69.80
2018-10-17T18:23:16.965Z,69.84
2018-10-17T18:25:45.295Z,69.96
2018-10-17T18:28:13.789Z,70.13
2018-10-17T18:30:42.039Z,70.24
2018-10-17T18:33:10.397Z,70.34
2018-10-17T18:35:38.747Z,70.59
2018-10-17T18:38:06.490Z,70.79
2018-10-17T18:40:35.458Z,70.86
2018-10-17T18:43:03.786Z,70.78
2018-10-17T18:45:31.593Z,70.85
2018-10-17T18:48:00.351Z,70.98
2018-10-17T18:50:29.220Z,71.08
2018-10-17T18:52:57.915Z,71.18
2018-10-17T18:55:26.258Z,71.24
2018-10-17T18:57:54.579Z,71.34
2018-10-17T19:00:22.939Z,71.32
2018-10-17T19:02:51.376Z,71.48
2018-10-17T19:05:19.136Z,71.68
2018-10-17T19:07:47.521Z,71.80
2018-10-17T19:10:16.456Z,71.96
2018-10-17T19:12:44.791Z,71.86
2018-10-17T19:15:12.651Z,71.82
2018-10-17T19:17:41.497Z,72.06
2018-10-17T19:20:09.872Z,72.09
2018-10-17T19:22:37.755Z,72.19
2018-10-17T19:25:06.706Z,72.37
2018-10-17T19:27:35.135Z,72.59
2018-10-17T19:30:03.491Z,72.48
2018-10-17T19:32:31.888Z,72.57
2018-10-17T19:35:00.278Z,72.74
2018-10-17T19:37:28.696Z,72.74
2018-10-17T19:39:57.251Z,72.62
2018-10-17T19:42:26.603Z,72.56
2018-10-17T19:44:54.997Z,72.47
2018-10-17T19:47:22.793Z,72.60
2018-10-17T19:49:51.766Z,72.56
2018-10-17T19:52:20.200Z,72.51
2018-10-17T19:54:48.611Z,72.62
2018-10-17T19:57:17.020Z,72.94
2018-10-17T19:59:45.271Z,72.90
2018-10-17T20:04:42.159Z,73.01
2018-10-17T20:07:10.497Z,73.22
2018-10-17T20:09:39.472Z,73.37
2018-10-17T20:12:08.725Z,73.51
2018-10-17T20:14:36.595Z,73.49
2018-10-17T20:17:05.559Z,73.56
2018-10-17T20:19:33.885Z,73.68
2018-10-17T20:22:02.247Z,73.89
2018-10-17T20:24:30.577Z,74.22
2018-10-17T20:26:58.399Z,74.35
2018-10-17T20:29:27.157Z,74.57
2018-10-17T20:31:55.044Z,74.48
2018-10-17T20:34:23.373Z,74.62
2018-10-17T20:36:52.276Z,74.70
2018-10-17T20:39:20.619Z,74.68
2018-10-17T20:41:48.958Z,74.71
2018-10-17T20:44:17.355Z,74.65
2018-10-17T20:46:45.936Z,74.30
2018-10-17T20:49:13.698Z,74.21
2018-10-17T20:51:42.625Z,74.20
2018-10-17T20:54:10.883Z,74.57
2018-10-17T20:56:39.693Z,75.04
2018-10-17T20:59:08.032Z,75.29
2018-10-17T21:01:35.835Z,75.10
2018-10-17T21:04:04.735Z,74.99
2018-10-17T21:06:33.052Z,74.96
2018-10-17T21:09:01.377Z,75.08
2018-10-17T21:11:29.162Z,75.23
2018-10-17T21:13:58.041Z,75.48
2018-10-17T21:16:26.368Z,75.04
2018-10-17T21:18:54.782Z,74.91
2018-10-17T21:21:23.023Z,75.20
2018-10-17T21:23:51.418Z,75.59
2018-10-17T21:26:19.161Z,75.53
2018-10-17T21:28:48.076Z,75.57
2018-10-17T21:31:15.824Z,75.74
2018-10-17T21:33:44.761Z,75.74
2018-10-17T21:36:13.066Z,75.62
2018-10-17T21:38:41.400Z,75.86
2018-10-17T21:41:09.140Z,76.17
2018-10-17T21:43:37.465Z,76.40
2018-10-17T21:46:06.369Z,76.34
2018-10-17T21:48:34.347Z,76.51
2018-10-17T21:51:02.434Z,76.89
2018-10-17T21:53:30.761Z,77.08
2018-10-17T21:55:59.488Z,77.08
2018-10-17T21:58:27.990Z,77.13
2018-10-17T22:00:55.731Z,77.25
2018-10-17T22:03:24.060Z,77.20
2018-10-17T22:05:52.388Z,77.07
2018-10-17T22:08:20.712Z,76.93
2018-10-17T22:10:49.621Z,76.93
2018-10-17T22:13:17.363Z,76.61
2018-10-17T22:15:46.266Z,76.54
2018-10-17T22:18:15.345Z,76.58
2018-10-17T22:20:43.105Z,76.62
2018-10-17T22:23:11.989Z,76.79
2018-10-17T22:25:40.336Z,76.84
2018-10-17T22:28:08.080Z,77.02
2018-10-17T22:30:36.400Z,77.12
2018-10-17T22:33:04.722Z,77.29
2018-10-17T22:35:33.636Z,77.45
2018-10-17T22:38:01.969Z,77.57
2018-10-17T22:40:29.693Z,77.63
2018-10-17T22:42:58.599Z,77.62
2018-10-17T22:45:26.366Z,77.72
2018-10-17T22:47:55.267Z,78.04
2018-10-17T22:50:23.591Z,78.14
2018-10-17T22:52:51.903Z,78.27
2018-10-17T22:55:19.692Z,78.32
2018-10-17T22:57:48.568Z,78.38
2018-10-17T23:00:16.880Z,78.46
2018-10-17T23:02:44.625Z,78.43
2018-10-17T23:05:12.949Z,78.57
2018-10-17T23:07:41.268Z,78.42
2018-10-17T23:10:09.595Z,78.28
2018-10-17T23:12:38.492Z,78.21
2018-10-17T23:15:07.652Z,78.18
2018-10-17T23:17:35.404Z,78.07
2018-10-17T23:20:03.204Z,78.08
2018-10-17T23:22:32.053Z,77.82
2018-10-17T23:25:00.380Z,77.64
2018-10-17T23:27:28.119Z,77.45
2018-10-17T23:29:56.435Z,77.34
2018-10-17T23:32:24.761Z,77.24
2018-10-17T23:34:53.083Z,77.17
2018-10-17T23:37:21.412Z,77.30
2018-10-17T23:39:50.317Z,77.36
2018-10-17T23:42:18.088Z,77.21
2018-10-17T23:44:47.253Z,77.10
2018-10-17T23:47:14.991Z,77.10
2018-10-17T23:49:43.316Z,77.10
2018-10-17T23:52:12.223Z,77.03
2018-10-17T23:54:40.550Z,77.08
2018-10-17T23:57:08.872Z,77.34
2018-10-17T23:59:37.192Z,77.54
